createdAt,value
2023-03-12T00:02:22.561Z,1.97
2023-03-12T00:04:49.425Z,2.07
2023-03-12T00:07:16.314Z,2.15
2023-03-12T00:09:43.124Z,2.23
2023-03-12T00:12:10.020Z,2.14
2023-03-12T00:14:36.844Z,2.24
2023-03-12T00:17:03.745Z,2.30
2023-03-12T00:19:30.697Z,2.34
2023-03-12T00:21:57.461Z,2.27
2023-03-12T00:24:24.448Z,2.22
2023-03-12T00:26:51.274Z,2.25
2023-03-12T00:29:18.110Z,2.21
2023-03-12T00:31:45.095Z,2.23
2023-03-12T00:34:11.904Z,2.20
2023-03-12T00:36:40.720Z,2.24
2023-03-12T00:39:07.693Z,2.22
2023-03-12T00:41:34.633Z,2.16
2023-03-12T00:44:01.607Z,2.22
2023-03-12T00:46:28.550Z,2.29
2023-03-12T00:48:55.559Z,2.16
2023-03-12T00:51:22.550Z,2.21
2023-03-12T00:53:49.585Z,2.16
2023-03-12T00:56:16.530Z,2.00
2023-03-12T00:58:43.394Z,2.03
2023-03-12T01:01:10.640Z,1.91
2023-03-12T01:03:38.014Z,1.90
2023-03-12T01:06:06.029Z,1.84
2023-03-12T01:08:33.926Z,1.83
2023-03-12T01:11:00.869Z,1.78
2023-03-12T01:13:27.724Z,1.81
2023-03-12T01:15:54.569Z,1.71
2023-03-12T01:18:21.380Z,1.65
2023-03-12T01:20:48.304Z,1.58
2023-03-12T01:23:15.107Z,1.60
2023-03-12T01:25:41.965Z,1.64
2023-03-12T01:28:08.819Z,1.55
2023-03-12T01:30:35.717Z,1.55
2023-03-12T01:33:02.566Z,1.39
2023-03-12T01:35:29.471Z,1.46
2023-03-12T01:37:56.700Z,1.41
2023-03-12T01:40:28.948Z,1.37
2023-03-12T01:42:57.584Z,1.32
2023-03-12T01:46:01.741Z,1.35
2023-03-12T01:48:34.209Z,1.24
2023-03-12T01:51:02.586Z,1.24
2023-03-12T01:53:30.291Z,1.31
2023-03-12T01:56:00.386Z,1.40
2023-03-12T01:58:28.614Z,1.33
2023-03-12T02:00:55.731Z,1.35
2023-03-12T02:03:22.627Z,1.42
2023-03-12T02:05:58.220Z,1.33
2023-03-12T02:08:24.992Z,1.32
2023-03-12T02:10:51.817Z,1.40
2023-03-12T02:13:18.912Z,1.54
2023-03-12T02:15:46.079Z,1.52
2023-03-12T02:18:16.667Z,1.60
2023-03-12T02:21:18.272Z,1.62
2023-03-12T02:24:19.886Z,1.63
2023-03-12T02:26:47.038Z,1.63
2023-03-12T02:29:14.418Z,1.65
2023-03-12T02:31:47.313Z,1.64
2023-03-12T02:34:14.239Z,1.68
2023-03-12T02:36:41.019Z,1.65
2023-03-12T02:39:08.093Z,1.61
2023-03-12T02:41:39.797Z,1.67
2023-03-12T02:44:11.899Z,1.73
2023-03-12T02:46:41.311Z,1.72
2023-03-12T02:49:08.925Z,1.67
2023-03-12T02:51:35.707Z,1.77
2023-03-12T02:54:04.466Z,1.78
2023-03-12T02:56:31.167Z,1.71
2023-03-12T02:58:58.186Z,1.57
2023-03-12T03:01:25.092Z,1.51
2023-03-12T03:03:52.077Z,1.40
2023-03-12T03:06:19.001Z,1.39
2023-03-12T03:08:45.730Z,1.48
2023-03-12T03:11:13.171Z,1.47
2023-03-12T03:13:39.914Z,1.38
2023-03-12T03:16:07.201Z,1.43
2023-03-12T03:18:34.466Z,1.31
2023-03-12T03:21:07.049Z,1.33
2023-03-12T03:23:34.178Z,1.25
2023-03-12T03:26:00.997Z,1.27
2023-03-12T03:28:29.817Z,1.20
2023-03-12T03:31:02.408Z,1.11
2023-03-12T03:33:31.218Z,1.11
2023-03-12T03:35:59.533Z,1.17
2023-03-12T03:38:28.326Z,1.06
2023-03-12T03:40:55.821Z,1.09
2023-03-12T03:43:23.417Z,1.01
2023-03-12T03:45:57.980Z,1.04
2023-03-12T03:48:25.418Z,0.96
2023-03-12T03:50:52.523Z,0.90
2023-03-12T03:53:20.250Z,0.79
2023-03-12T03:55:47.499Z,0.91
2023-03-12T03:58:14.319Z,0.84
2023-03-12T04:00:44.334Z,0.65
2023-03-12T04:03:11.301Z,0.74
2023-03-12T04:05:38.790Z,0.75
2023-03-12T04:08:06.264Z,0.73
2023-03-12T04:10:35.358Z,0.68
2023-03-12T04:13:02.111Z,0.73
2023-03-12T04:15:29.939Z,0.64
2023-03-12T04:17:56.751Z,0.53
2023-03-12T04:20:23.808Z,0.46
2023-03-12T04:22:50.494Z,0.42
2023-03-12T04:25:17.404Z,0.52
2023-03-12T04:27:44.160Z,0.63
2023-03-12T04:30:11.603Z,0.69
2023-03-12T04:32:38.519Z,0.62
2023-03-12T04:35:05.509Z,0.59
2023-03-12T04:37:34.089Z,0.50
2023-03-12T04:40:02.895Z,0.58
2023-03-12T04:42:29.785Z,0.47
2023-03-12T04:44:56.704Z,0.44
2023-03-12T04:47:23.497Z,0.39
2023-03-12T04:49:51.307Z,0.34
2023-03-12T04:52:18.244Z,0.59
2023-03-12T04:54:47.857Z,0.25
2023-03-12T04:57:14.922Z,0.28
2023-03-12T04:59:41.719Z,0.22
2023-03-12T05:02:08.621Z,0.12
2023-03-12T05:04:35.429Z,0.14
2023-03-12T05:07:02.261Z,0.15
2023-03-12T05:09:29.355Z,0.17
2023-03-12T05:11:56.674Z,0.29
2023-03-12T05:14:23.870Z,0.34
2023-03-12T05:16:50.701Z,0.17
2023-03-12T05:19:17.609Z,0.21
2023-03-12T05:21:44.660Z,0.19
2023-03-12T05:24:11.917Z,0.27
2023-03-12T05:26:38.757Z,0.25
2023-03-12T05:29:06.881Z,0.25
2023-03-12T05:31:35.517Z,0.28
2023-03-12T05:34:04.369Z,0.28
2023-03-12T05:36:31.403Z,0.24
2023-03-12T05:38:58.150Z,0.21
2023-03-12T05:41:29.848Z,0.30
2023-03-12T05:43:57.943Z,0.29
2023-03-12T05:46:27.420Z,0.27
2023-03-12T05:48:54.270Z,0.17
2023-03-12T05:51:21.708Z,0.19
2023-03-12T05:53:48.553Z,0.18
2023-03-12T05:56:17.501Z,0.15
2023-03-12T05:58:45.070Z,0.12
2023-03-12T06:01:21.728Z,0.21
2023-03-12T06:03:48.982Z,0.14
2023-03-12T06:06:16.424Z,0.24
2023-03-12T06:08:44.214Z,0.30
2023-03-12T06:11:12.049Z,0.34
2023-03-12T06:13:39.332Z,0.27
2023-03-12T06:16:16.328Z,0.29
2023-03-12T06:18:43.757Z,0.31
2023-03-12T06:21:22.640Z,0.35
2023-03-12T06:23:50.272Z,0.42
2023-03-12T06:26:17.249Z,0.45
2023-03-12T06:28:45.719Z,0.53
2023-03-12T06:31:12.944Z,0.60
2023-03-12T06:33:40.267Z,0.60
2023-03-12T06:36:09.364Z,0.79
2023-03-12T06:38:36.714Z,0.92
2023-03-12T06:41:06.472Z,0.97
2023-03-12T06:43:36.898Z,0.96
2023-03-12T06:46:05.189Z,1.23
2023-03-12T06:48:33.627Z,1.31
2023-03-12T06:51:00.493Z,1.39
2023-03-12T06:53:27.445Z,1.65
2023-03-12T06:55:54.314Z,1.82
2023-03-12T06:58:21.053Z,2.06
2023-03-12T07:00:47.837Z,2.11
2023-03-12T07:03:17.384Z,2.13
2023-03-12T07:05:46.436Z,2.23
2023-03-12T07:08:13.443Z,2.20
2023-03-12T07:10:40.762Z,2.29
2023-03-12T07:13:08.292Z,2.40
2023-03-12T07:15:35.372Z,2.46
2023-03-12T07:18:08.240Z,2.57
2023-03-12T07:20:40.411Z,2.46
2023-03-12T07:23:07.503Z,2.56
2023-03-12T07:25:39.496Z,2.55
2023-03-12T07:28:07.507Z,2.54
2023-03-12T07:30:34.925Z,2.88
2023-03-12T07:33:06.730Z,2.74
2023-03-12T07:35:33.979Z,2.94
2023-03-12T07:38:02.058Z,3.11
2023-03-12T07:40:29.251Z,3.13
2023-03-12T07:42:56.663Z,3.28
2023-03-12T07:45:25.295Z,3.47
2023-03-12T07:47:52.327Z,3.69
2023-03-12T07:50:19.839Z,3.71
2023-03-12T07:52:46.988Z,3.74
2023-03-12T07:55:14.542Z,3.87
2023-03-12T07:57:42.759Z,3.72
2023-03-12T08:00:11.400Z,4.06
2023-03-12T08:02:38.735Z,3.90
2023-03-12T08:05:06.640Z,3.78
2023-03-12T08:07:35.344Z,3.92
2023-03-12T08:10:04.529Z,3.68
2023-03-12T08:12:31.446Z,3.90
2023-03-12T08:14:58.490Z,3.80
2023-03-12T08:17:25.653Z,3.94
2023-03-12T08:19:53.430Z,3.98
2023-03-12T08:22:20.194Z,4.13
2023-03-12T08:24:47.653Z,4.20
2023-03-12T08:27:15.496Z,4.35
2023-03-12T08:29:42.515Z,4.21
2023-03-12T08:32:14.120Z,4.44
2023-03-12T08:34:41.371Z,4.39
2023-03-12T08:37:08.092Z,4.69
2023-03-12T08:39:34.962Z,4.90
2023-03-12T08:42:01.862Z,4.88
2023-03-12T08:44:28.736Z,4.80
2023-03-12T08:46:55.506Z,4.65
2023-03-12T08:49:23.040Z,4.90
2023-03-12T08:51:52.147Z,5.19
2023-03-12T08:54:20.541Z,5.39
2023-03-12T08:56:53.003Z,5.40
2023-03-12T08:59:20.806Z,5.40
2023-03-12T09:01:47.978Z,5.85
2023-03-12T09:04:15.056Z,6.11
2023-03-12T09:06:42.285Z,6.31
2023-03-12T09:09:09.133Z,6.70
2023-03-12T09:11:39.651Z,7.19
2023-03-12T09:14:46.195Z,7.18
2023-03-12T09:16:55.723Z,6.57
2023-03-12T09:19:22.509Z,6.85
2023-03-12T09:21:49.607Z,6.88
2023-03-12T09:24:16.371Z,6.44
2023-03-12T09:26:43.081Z,6.73
2023-03-12T09:29:10.034Z,6.94
2023-03-12T09:31:37.103Z,7.07
2023-03-12T09:34:04.963Z,6.87
2023-03-12T09:36:32.376Z,6.71
2023-03-12T09:38:59.622Z,6.76
2023-03-12T09:41:32.913Z,7.64
2023-03-12T09:44:21.543Z,8.95
2023-03-12T09:46:53.521Z,8.76
2023-03-12T09:49:31.263Z,8.59
2023-03-12T09:52:01.489Z,9.16
2023-03-12T09:54:37.106Z,9.23
2023-03-12T09:57:09.236Z,9.89
2023-03-12T09:59:37.042Z,9.70
2023-03-12T10:02:18.484Z,9.57
2023-03-12T10:05:00.020Z,9.47
2023-03-12T10:07:43.119Z,10.11
2023-03-12T10:10:21.732Z,9.71
2023-03-12T10:13:07.071Z,10.72
2023-03-12T10:15:55.310Z,9.94
2023-03-12T10:18:38.818Z,9.05
2023-03-12T10:21:11.879Z,8.52
2023-03-12T10:23:41.702Z,8.60
2023-03-12T10:26:32.089Z,8.43
2023-03-12T10:29:06.168Z,8.13
2023-03-12T10:31:40.535Z,8.48
2023-03-12T10:34:19.278Z,7.96
2023-03-12T10:36:46.726Z,7.71
2023-03-12T10:39:16.870Z,8.86
2023-03-12T10:41:48.404Z,8.39
2023-03-12T10:44:22.505Z,7.93
2023-03-12T10:47:20.166Z,8.49
2023-03-12T10:49:50.584Z,8.13
2023-03-12T10:52:22.825Z,8.72
2023-03-12T10:54:51.812Z,8.62
2023-03-12T10:57:19.551Z,8.16
2023-03-12T10:59:48.916Z,7.86
2023-03-12T11:02:40.056Z,7.92
2023-03-12T11:05:21.545Z,7.96
2023-03-12T11:07:48.434Z,7.02
2023-03-12T11:10:26.015Z,7.16
2023-03-12T11:13:05.762Z,7.13
2023-03-12T11:15:40.900Z,7.19
2023-03-12T11:18:38.413Z,6.93
2023-03-12T11:21:11.170Z,6.96
2023-03-12T11:23:44.089Z,6.74
2023-03-12T11:26:17.192Z,6.80
2023-03-12T11:28:52.679Z,6.83
2023-03-12T11:31:24.571Z,7.01
2023-03-12T11:33:53.083Z,6.63
2023-03-12T11:36:28.661Z,6.57
2023-03-12T11:39:07.609Z,6.21
2023-03-12T11:41:59.611Z,6.01
2023-03-12T11:44:42.486Z,6.11
2023-03-12T11:47:39.185Z,5.74
2023-03-12T11:50:21.563Z,5.86
2023-03-12T11:53:17.679Z,5.49
2023-03-12T11:56:03.958Z,5.59
2023-03-12T11:59:23.105Z,5.80
2023-03-12T12:02:02.447Z,5.86
2023-03-12T12:04:52.481Z,5.39
2023-03-12T12:07:37.522Z,5.70
2023-03-12T12:10:29.557Z,6.20
2023-03-12T12:13:08.390Z,5.97
2023-03-12T12:15:39.123Z,5.85
2023-03-12T12:18:36.154Z,5.93
2023-03-12T12:21:07.938Z,5.69
2023-03-12T12:23:40.520Z,5.64
2023-03-12T12:26:14.062Z,5.56
2023-03-12T12:29:13.475Z,5.46
2023-03-12T12:31:50.036Z,5.41
2023-03-12T12:34:39.204Z,5.49
2023-03-12T12:37:15.142Z,5.22
2023-03-12T12:39:49.706Z,5.09
2023-03-12T12:42:21.889Z,5.21
2023-03-12T12:44:52.627Z,5.25
2023-03-12T12:47:33.044Z,5.19
2023-03-12T12:50:01.515Z,5.04
2023-03-12T12:52:29.050Z,4.97
2023-03-12T12:55:19.564Z,5.06
2023-03-12T12:57:55.312Z,5.12
2023-03-12T13:00:45.244Z,5.04
2023-03-12T13:03:22.062Z,4.97
2023-03-12T13:05:56.579Z,4.92
2023-03-12T13:08:40.011Z,5.03
2023-03-12T13:11:23.592Z,4.97
2023-03-12T13:14:11.628Z,4.90
2023-03-12T13:16:39.074Z,4.76
2023-03-12T13:19:14.934Z,5.06
2023-03-12T13:22:11.384Z,5.02
2023-03-12T13:24:51.841Z,4.98
2023-03-12T13:27:25.747Z,4.97
2023-03-12T13:29:57.424Z,4.92
2023-03-12T13:32:36.404Z,4.97
2023-03-12T13:35:15.834Z,5.16
2023-03-12T13:38:01.760Z,5.03
2023-03-12T13:40:31.528Z,5.05
2023-03-12T13:43:08.334Z,5.12
2023-03-12T13:45:47.108Z,5.17
2023-03-12T13:48:22.108Z,5.20
2023-03-12T13:50:55.750Z,5.03
2023-03-12T13:53:47.104Z,4.94
2023-03-12T13:56:17.576Z,4.88
2023-03-12T13:58:57.223Z,4.92
2023-03-12T14:01:29.356Z,4.73
2023-03-12T14:04:00.777Z,4.86
2023-03-12T14:06:30.419Z,4.84
2023-03-12T14:09:10.421Z,4.90
2023-03-12T14:11:50.681Z,4.77
2023-03-12T14:14:45.342Z,4.71
2023-03-12T14:17:27.431Z,4.94
2023-03-12T14:20:16.636Z,4.92
2023-03-12T14:22:48.648Z,4.82
2023-03-12T14:25:31.640Z,4.81
2023-03-12T14:27:59.584Z,4.31
2023-03-12T14:30:37.616Z,4.26
2023-03-12T14:33:04.932Z,4.00
2023-03-12T14:35:41.875Z,4.07
2023-03-12T14:38:20.379Z,3.95
2023-03-12T14:41:01.065Z,3.64
2023-03-12T14:43:35.396Z,3.40
2023-03-12T14:46:05.656Z,3.33
2023-03-12T14:48:34.396Z,3.25
2023-03-12T14:51:03.862Z,3.26
2023-03-12T14:53:32.181Z,3.54
2023-03-12T14:56:08.193Z,3.52
2023-03-12T14:58:41.676Z,3.28
2023-03-12T15:01:14.668Z,3.30
2023-03-12T15:03:45.819Z,3.49
2023-03-12T15:06:17.841Z,3.47
2023-03-12T15:08:45.124Z,3.49
2023-03-12T15:11:12.605Z,3.49
2023-03-12T15:13:40.160Z,3.60
2023-03-12T15:16:07.673Z,3.41
2023-03-12T15:18:34.688Z,3.42
2023-03-12T15:21:02.960Z,3.39
2023-03-12T15:23:34.147Z,3.32
2023-03-12T15:26:24.323Z,3.43
2023-03-12T15:29:28.235Z,3.32
2023-03-12T15:32:00.317Z,3.26
2023-03-12T15:34:33.866Z,3.39
2023-03-12T15:37:03.706Z,3.23
2023-03-12T15:39:33.826Z,3.14
2023-03-12T15:42:09.872Z,3.36
2023-03-12T15:45:03.193Z,3.29
2023-03-12T15:47:33.014Z,3.35
2023-03-12T15:50:12.398Z,3.30
2023-03-12T15:52:39.873Z,3.34
2023-03-12T15:55:10.300Z,3.42
2023-03-12T15:57:53.879Z,3.23
2023-03-12T16:00:24.913Z,3.24
2023-03-12T16:02:56.502Z,3.43
2023-03-12T16:05:33.319Z,3.34
2023-03-12T16:08:02.932Z,3.24
2023-03-12T16:10:35.489Z,3.34
2023-03-12T16:13:04.710Z,3.24
2023-03-12T16:15:38.725Z,3.19
2023-03-12T16:18:11.413Z,3.26
2023-03-12T16:20:38.212Z,3.30
2023-03-12T16:23:05.108Z,3.17
2023-03-12T16:25:32.246Z,3.24
2023-03-12T16:28:02.393Z,3.13
2023-03-12T16:30:32.168Z,3.14
2023-03-12T16:33:00.452Z,2.98
2023-03-12T16:35:28.468Z,2.93
2023-03-12T16:37:55.803Z,2.88
2023-03-12T16:40:32.849Z,2.90
2023-03-12T16:43:03.756Z,2.94
2023-03-12T16:45:33.778Z,2.96
2023-03-12T16:48:03.478Z,2.90
2023-03-12T16:50:31.098Z,2.78
2023-03-12T16:52:58.872Z,2.82
2023-03-12T16:55:29.676Z,2.75
2023-03-12T16:58:00.306Z,2.75
2023-03-12T17:00:30.521Z,2.59
2023-03-12T17:02:59.018Z,2.55
2023-03-12T17:05:28.236Z,2.39
2023-03-12T17:07:55.974Z,2.62
2023-03-12T17:10:24.079Z,2.58
2023-03-12T17:12:51.704Z,2.27
2023-03-12T17:15:30.665Z,2.42
2023-03-12T17:18:01.054Z,2.26
2023-03-12T17:20:28.218Z,2.13
2023-03-12T17:22:55.257Z,2.15
2023-03-12T17:25:26.231Z,2.09
2023-03-12T17:27:53.934Z,2.06
2023-03-12T17:30:22.180Z,1.97
2023-03-12T17:32:51.751Z,1.99
2023-03-12T17:35:19.997Z,1.91
2023-03-12T17:37:48.558Z,1.90
2023-03-12T17:40:16.483Z,1.92
2023-03-12T17:42:43.369Z,1.80
2023-03-12T17:45:10.801Z,1.73
2023-03-12T17:47:37.882Z,1.70
2023-03-12T17:50:06.331Z,1.68
2023-03-12T17:52:34.053Z,1.61
2023-03-12T17:55:01.213Z,1.69
2023-03-12T17:57:28.247Z,1.76
2023-03-12T17:59:55.299Z,1.66
2023-03-12T18:02:22.313Z,1.76
2023-03-12T18:04:49.396Z,1.67
2023-03-12T18:07:16.511Z,1.60
2023-03-12T18:09:43.605Z,1.61
2023-03-12T18:12:12.496Z,1.62
2023-03-12T18:14:39.465Z,1.52
2023-03-12T18:17:06.312Z,1.53
2023-03-12T18:19:35.269Z,1.76
2023-03-12T18:22:02.635Z,1.45
2023-03-12T18:24:30.515Z,1.52
2023-03-12T18:26:59.237Z,1.52
2023-03-12T18:29:26.562Z,1.55
2023-03-12T18:31:53.290Z,1.49
2023-03-12T18:34:20.775Z,1.56
2023-03-12T18:36:47.840Z,1.43
2023-03-12T18:39:14.786Z,1.42
2023-03-12T18:41:42.148Z,1.54
2023-03-12T18:44:08.973Z,1.35
2023-03-12T18:46:35.669Z,1.53
2023-03-12T18:49:07.801Z,1.45
2023-03-12T18:51:36.416Z,1.48
2023-03-12T18:54:03.297Z,1.50
2023-03-12T18:56:30.029Z,1.43
2023-03-12T18:58:59.324Z,1.57
2023-03-12T19:01:26.519Z,1.95
2023-03-12T19:03:53.396Z,1.57
2023-03-12T19:06:20.369Z,1.51
2023-03-12T19:08:47.137Z,1.53
2023-03-12T19:11:15.577Z,1.57
2023-03-12T19:13:42.742Z,1.65
2023-03-12T19:16:11.152Z,1.55
2023-03-12T19:18:39.295Z,1.60
2023-03-12T19:21:09.530Z,1.63
2023-03-12T19:23:36.904Z,1.56
2023-03-12T19:26:04.404Z,1.62
2023-03-12T19:28:31.596Z,1.47
2023-03-12T19:31:03.582Z,1.53
2023-03-12T19:33:35.112Z,1.48
2023-03-12T19:36:02.452Z,1.46
2023-03-12T19:38:29.979Z,1.49
2023-03-12T19:40:57.866Z,1.55
2023-03-12T19:43:25.160Z,1.54
2023-03-12T19:45:54.777Z,1.57
2023-03-12T19:48:22.325Z,1.60
2023-03-12T19:50:49.786Z,1.65
2023-03-12T19:53:17.774Z,1.63
2023-03-12T19:55:51.414Z,1.65
2023-03-12T19:58:18.396Z,1.75
2023-03-12T20:00:45.235Z,1.70
2023-03-12T20:03:12.174Z,1.72
2023-03-12T20:05:42.032Z,1.71
2023-03-12T20:08:08.800Z,1.80
2023-03-12T20:10:35.695Z,1.87
2023-03-12T20:13:02.482Z,1.84
2023-03-12T20:15:33.306Z,1.82
2023-03-12T20:18:00.395Z,1.84
2023-03-12T20:20:27.346Z,1.85
2023-03-12T20:22:56.388Z,1.88
2023-03-12T20:25:25.705Z,1.98
2023-03-12T20:27:57.483Z,1.94
2023-03-12T20:30:24.274Z,1.97
2023-03-12T20:32:52.370Z,2.08
2023-03-12T20:35:20.332Z,2.07
2023-03-12T20:37:49.871Z,2.06
2023-03-12T20:40:16.823Z,2.09
2023-03-12T20:42:43.666Z,2.20
2023-03-12T20:45:12.220Z,2.19
2023-03-12T20:47:40.344Z,2.51
2023-03-12T20:50:08.118Z,2.39
2023-03-12T20:52:35.873Z,2.29
2023-03-12T20:55:02.872Z,2.28
2023-03-12T20:57:29.753Z,2.38
2023-03-12T20:59:56.816Z,2.36
2023-03-12T21:02:23.971Z,2.37
2023-03-12T21:04:52.782Z,2.50
2023-03-12T21:07:20.087Z,2.54
2023-03-12T21:09:46.863Z,2.45
2023-03-12T21:12:14.045Z,2.51
2023-03-12T21:14:41.523Z,2.54
2023-03-12T21:17:13.323Z,2.60
2023-03-12T21:19:41.669Z,2.67
2023-03-12T21:22:09.821Z,2.68
2023-03-12T21:24:36.580Z,2.89
2023-03-12T21:27:03.685Z,2.68
2023-03-12T21:29:30.441Z,2.74
2023-03-12T21:31:57.521Z,2.75
2023-03-12T21:34:24.416Z,2.78
2023-03-12T21:36:51.261Z,2.81
2023-03-12T21:39:18.789Z,2.93
2023-03-12T21:41:45.676Z,2.89
2023-03-12T21:44:14.203Z,2.89
2023-03-12T21:46:42.378Z,2.94
2023-03-12T21:49:09.432Z,3.01
2023-03-12T21:51:39.059Z,3.04
2023-03-12T21:54:06.552Z,3.08
2023-03-12T21:56:33.385Z,3.15
2023-03-12T21:59:01.459Z,3.19
2023-03-12T22:01:28.898Z,3.19
2023-03-12T22:03:55.822Z,3.23
2023-03-12T22:06:22.789Z,3.29
2023-03-12T22:08:49.822Z,3.34
2023-03-12T22:11:17.049Z,3.40
2023-03-12T22:13:44.105Z,3.44
2023-03-12T22:16:12.996Z,3.45
2023-03-12T22:18:45.406Z,3.48
2023-03-12T22:21:23.075Z,3.55
2023-03-12T22:23:53.475Z,3.64
2023-03-12T22:26:21.480Z,3.88
2023-03-12T22:28:53.841Z,3.76
2023-03-12T22:31:22.609Z,3.75
2023-03-12T22:33:49.597Z,3.79
2023-03-12T22:36:18.087Z,3.83
2023-03-12T22:38:45.293Z,3.84
2023-03-12T22:41:16.893Z,3.90
2023-03-12T22:43:44.296Z,3.93
2023-03-12T22:46:11.824Z,3.98
2023-03-12T22:48:38.622Z,4.06
2023-03-12T22:51:05.945Z,4.10
2023-03-12T22:53:33.207Z,4.17
2023-03-12T22:56:06.183Z,4.19
2023-03-12T22:58:33.462Z,4.22
2023-03-12T23:01:08.425Z,4.29
2023-03-12T23:03:37.019Z,4.36
2023-03-12T23:06:08.681Z,4.38
2023-03-12T23:08:35.583Z,4.42
2023-03-12T23:11:04.096Z,4.48
2023-03-12T23:13:33.197Z,4.50
2023-03-12T23:16:08.023Z,4.54
2023-03-12T23:18:35.998Z,4.57
2023-03-12T23:21:06.049Z,4.61
2023-03-12T23:23:33.521Z,4.54
2023-03-12T23:26:01.453Z,4.50
2023-03-12T23:28:29.689Z,4.48
2023-03-12T23:31:01.979Z,4.48
2023-03-12T23:33:29.961Z,4.42
2023-03-12T23:35:59.879Z,4.44
2023-03-12T23:38:27.516Z,4.42
2023-03-12T23:41:03.188Z,4.45
2023-03-12T23:43:30.091Z,4.48
2023-03-12T23:45:58.739Z,4.54
2023-03-12T23:48:31.778Z,4.56
2023-03-12T23:51:12.477Z,4.57
2023-03-12T23:53:41.078Z,4.60
2023-03-12T23:56:10.776Z,4.57
2023-03-12T23:58:37.742Z,4.56
